createdAt,value
2018-10-16T00:01:00.178Z,15.12
2018-10-16T00:03:28.937Z,15.05
2018-10-16T00:05:57.532Z,15.03
2018-10-16T00:08:26.045Z,15.04
2018-10-16T00:10:54.566Z,15.03
2018-10-16T00:13:23.966Z,15.03
2018-10-16T00:15:53.047Z,15.06
2018-10-16T00:18:21.552Z,15.12
2018-10-16T00:20:50.057Z,15.14
2018-10-16T00:23:18.821Z,15.13
2018-10-16T00:25:47.341Z,15.12
2018-10-16T00:28:15.824Z,15.11
2018-10-16T00:30:44.386Z,15.18
2018-10-16T00:33:13.011Z,15.15
2018-10-16T00:35:41.565Z,15.20
2018-10-16T00:38:10.078Z,15.18
2018-10-16T00:40:38.574Z,15.18
2018-10-16T00:43:07.123Z,15.26
2018-10-16T00:45:35.639Z,15.20
2018-10-16T00:48:05.216Z,15.16
2018-10-16T00:50:33.731Z,15.14
2018-10-16T00:53:04.036Z,15.09
2018-10-16T00:55:32.924Z,15.09
2018-10-16T00:58:02.828Z,15.01
2018-10-16T01:00:31.462Z,14.96
2018-10-16T01:03:00.059Z,14.93
2018-10-16T01:05:28.627Z,14.90
2018-10-16T01:07:57.135Z,14.89
2018-10-16T01:10:25.688Z,14.90
2018-10-16T01:12:54.542Z,14.85
2018-10-16T01:15:23.058Z,14.82
2018-10-16T01:17:52.061Z,14.83
2018-10-16T01:20:20.665Z,14.89
2018-10-16T01:22:49.214Z,14.84
2018-10-16T01:25:17.718Z,14.79
2018-10-16T01:27:46.267Z,14.75
2018-10-16T01:30:14.813Z,14.75
2018-10-16T01:32:43.405Z,14.74
2018-10-16T01:35:12.579Z,14.72
2018-10-16T01:37:41.585Z,14.64
2018-10-16T01:40:11.235Z,14.62
2018-10-16T01:42:39.832Z,14.57
2018-10-16T01:45:08.957Z,14.59
2018-10-16T01:47:37.485Z,14.68
2018-10-16T01:50:09.914Z,14.61
2018-10-16T01:52:38.623Z,14.55
2018-10-16T01:55:07.265Z,14.52
2018-10-16T01:57:35.809Z,14.48
2018-10-16T02:00:05.757Z,14.48
2018-10-16T02:02:34.388Z,14.44
2018-10-16T02:05:05.575Z,14.39
2018-10-16T02:07:34.099Z,14.37
2018-10-16T02:10:03.404Z,14.35
2018-10-16T02:12:31.911Z,14.34
2018-10-16T02:15:00.426Z,14.30
2018-10-16T02:17:28.949Z,14.27
2018-10-16T02:19:57.442Z,14.24
2018-10-16T02:22:25.965Z,14.23
2018-10-16T02:24:54.482Z,14.20
2018-10-16T02:27:23.047Z,14.20
2018-10-16T02:29:51.537Z,14.18
2018-10-16T02:32:20.061Z,14.13
2018-10-16T02:34:48.588Z,14.12
2018-10-16T02:37:17.182Z,14.07
2018-10-16T02:39:45.742Z,14.03
2018-10-16T02:42:14.361Z,14.01
2018-10-16T02:44:42.844Z,13.95
2018-10-16T02:47:11.398Z,13.91
2018-10-16T02:49:40.003Z,13.88
2018-10-16T02:52:08.525Z,13.85
2018-10-16T02:54:37.164Z,14.05
2018-10-16T02:57:06.113Z,14.08
2018-10-16T02:59:34.604Z,13.90
2018-10-16T03:02:04.712Z,13.75
2018-10-16T03:04:33.235Z,13.75
2018-10-16T03:07:05.432Z,13.66
2018-10-16T03:09:33.946Z,13.58
2018-10-16T03:12:03.259Z,13.48
2018-10-16T03:14:31.781Z,13.40
2018-10-16T03:17:00.403Z,13.41
2018-10-16T03:19:28.957Z,13.38
2018-10-16T03:21:57.491Z,13.33
2018-10-16T03:24:26.012Z,13.28
2018-10-16T03:26:55.100Z,13.25
2018-10-16T03:29:23.736Z,13.21
2018-10-16T03:31:52.278Z,13.19
2018-10-16T03:34:20.955Z,13.16
2018-10-16T03:36:49.449Z,13.27
2018-10-16T03:39:18.393Z,13.16
2018-10-16T03:41:46.910Z,13.07
2018-10-16T03:44:15.452Z,13.04
2018-10-16T03:46:43.973Z,13.02
2018-10-16T03:49:12.530Z,12.96
2018-10-16T03:51:41.668Z,12.91
2018-10-16T03:54:10.763Z,12.89
2018-10-16T03:56:39.247Z,12.86
2018-10-16T03:59:07.774Z,12.85
2018-10-16T04:01:36.595Z,12.84
2018-10-16T04:04:05.499Z,12.82
2018-10-16T04:06:34.016Z,12.80
2018-10-16T04:09:05.301Z,12.76
2018-10-16T04:11:33.839Z,12.74
2018-10-16T04:14:03.838Z,12.75
2018-10-16T04:16:32.350Z,12.71
2018-10-16T04:19:00.892Z,12.75
2018-10-16T04:21:34.533Z,12.68
2018-10-16T04:24:04.553Z,12.59
2018-10-16T04:26:33.189Z,12.53
2018-10-16T04:29:03.262Z,12.51
2018-10-16T04:31:31.799Z,12.45
2018-10-16T04:34:00.297Z,12.47
2018-10-16T04:36:28.983Z,12.43
2018-10-16T04:38:57.501Z,12.39
2018-10-16T04:41:26.275Z,12.30
2018-10-16T04:43:55.818Z,12.31
2018-10-16T04:46:24.404Z,12.25
2018-10-16T04:48:52.998Z,12.21
2018-10-16T04:51:21.665Z,12.21
2018-10-16T04:53:50.149Z,12.34
2018-10-16T04:56:18.656Z,12.29
2018-10-16T04:58:47.723Z,12.26
2018-10-16T05:01:16.233Z,12.16
2018-10-16T05:03:44.731Z,12.11
2018-10-16T05:06:13.270Z,12.09
2018-10-16T05:08:43.056Z,12.05
2018-10-16T05:11:11.643Z,12.01
2018-10-16T05:13:40.428Z,12.01
2018-10-16T05:16:08.997Z,12.02
2018-10-16T05:18:37.526Z,11.99
2018-10-16T05:21:06.618Z,11.96
2018-10-16T05:23:35.138Z,11.92
2018-10-16T05:26:06.055Z,11.89
2018-10-16T05:28:34.632Z,11.91
2018-10-16T05:31:04.673Z,11.89
2018-10-16T05:33:33.145Z,11.87
2018-10-16T05:36:02.813Z,11.85
2018-10-16T05:38:31.377Z,11.82
2018-10-16T05:40:59.905Z,11.88
2018-10-16T05:43:28.432Z,11.90
2018-10-16T05:45:57.465Z,11.89
2018-10-16T05:48:26.064Z,11.84
2018-10-16T05:50:54.555Z,11.80
2018-10-16T05:53:23.106Z,11.80
2018-10-16T05:56:02.748Z,11.80
2018-10-16T05:58:31.397Z,11.82
2018-10-16T06:00:59.955Z,11.78
2018-10-16T06:03:28.788Z,11.78
2018-10-16T06:05:57.313Z,11.80
2018-10-16T06:08:25.838Z,11.84
2018-10-16T06:10:54.443Z,11.85
2018-10-16T06:13:22.915Z,11.89
2018-10-16T06:15:51.525Z,12.01
2018-10-16T06:18:20.017Z,12.27
2018-10-16T06:20:48.535Z,12.32
2018-10-16T06:23:17.074Z,12.32
2018-10-16T06:25:46.209Z,12.43
2018-10-16T06:28:22.232Z,12.35
2018-10-16T06:30:50.777Z,12.32
2018-10-16T06:33:22.093Z,12.35
2018-10-16T06:35:50.601Z,12.40
2018-10-16T06:38:19.122Z,12.45
2018-10-16T06:40:47.715Z,12.54
2018-10-16T06:43:16.252Z,12.63
2018-10-16T06:45:44.977Z,12.72
2018-10-16T06:48:13.883Z,12.87
2018-10-16T06:50:42.629Z,12.94
2018-10-16T06:53:11.305Z,13.01
2018-10-16T06:55:39.787Z,13.09
2018-10-16T06:58:08.786Z,13.15
2018-10-16T07:00:37.876Z,13.27
2018-10-16T07:03:06.735Z,13.38
2018-10-16T07:05:36.147Z,13.50
2018-10-16T07:08:05.255Z,13.62
2018-10-16T07:10:33.802Z,13.72
2018-10-16T07:13:03.688Z,13.80
2018-10-16T07:15:32.573Z,13.91
2018-10-16T07:18:03.082Z,14.02
2018-10-16T07:20:31.569Z,14.16
2018-10-16T07:23:00.069Z,14.40
2018-10-16T07:25:28.613Z,14.64
2018-10-16T07:27:57.212Z,14.71
2018-10-16T07:30:25.800Z,14.87
2018-10-16T07:32:54.322Z,14.98
2018-10-16T07:35:22.865Z,14.96
2018-10-16T07:37:51.499Z,15.27
2018-10-16T07:40:19.970Z,15.36
2018-10-16T07:42:48.456Z,15.57
2018-10-16T07:45:16.963Z,15.63
2018-10-16T07:47:45.497Z,15.78
2018-10-16T07:50:14.030Z,15.89
2018-10-16T07:52:42.557Z,15.99
2018-10-16T07:55:12.774Z,16.12
2018-10-16T07:57:41.531Z,16.21
2018-10-16T08:00:13.069Z,16.26
2018-10-16T08:02:42.713Z,16.48
2018-10-16T08:05:12.112Z,16.49
2018-10-16T08:07:41.274Z,16.60
2018-10-16T08:10:11.418Z,16.53
2018-10-16T08:12:40.262Z,16.88
2018-10-16T08:15:09.498Z,17.10
2018-10-16T08:17:38.466Z,17.22
2018-10-16T08:20:07.254Z,17.26
2018-10-16T08:22:36.033Z,17.18
2018-10-16T08:25:05.214Z,17.13
2018-10-16T08:27:33.724Z,17.35
2018-10-16T08:30:04.231Z,17.76
2018-10-16T08:32:32.761Z,17.64
2018-10-16T08:35:02.455Z,17.80
2018-10-16T08:39:47.427Z,17.78
2018-10-16T08:43:30.746Z,18.01
2018-10-16T08:46:10.521Z,18.35
2018-10-16T08:48:50.280Z,18.37
2018-10-16T08:51:31.855Z,18.90
2018-10-16T08:54:00.427Z,19.21
2018-10-16T08:56:29.037Z,18.77
2018-10-16T08:58:57.855Z,19.00
2018-10-16T09:01:26.409Z,19.41
2018-10-16T09:03:54.953Z,19.47
2018-10-16T09:06:23.466Z,20.04
2018-10-16T09:08:52.000Z,20.07
2018-10-16T09:11:20.570Z,20.25
2018-10-16T09:13:49.202Z,20.65
2018-10-16T09:16:17.716Z,20.88
2018-10-16T09:18:47.974Z,20.34
2018-10-16T09:21:16.516Z,20.98
2018-10-16T09:23:45.157Z,21.39
2018-10-16T09:26:13.751Z,20.92
2018-10-16T09:28:42.364Z,21.44
2018-10-16T09:31:10.960Z,21.84
2018-10-16T09:33:39.540Z,22.08
2018-10-16T09:36:08.393Z,22.14
2018-10-16T09:38:37.216Z,21.84
2018-10-16T09:41:05.919Z,21.78
2018-10-16T09:43:34.881Z,22.26
2018-10-16T09:46:04.480Z,22.44
2018-10-16T09:48:33.019Z,22.15
2018-10-16T09:51:03.190Z,22.50
2018-10-16T09:53:31.728Z,23.09
2018-10-16T09:56:00.242Z,22.71
2018-10-16T09:58:29.108Z,22.69
2018-10-16T10:01:02.976Z,22.78
2018-10-16T10:03:31.692Z,23.09
2018-10-16T10:06:00.178Z,23.08
2018-10-16T10:08:28.696Z,22.42
2018-10-16T10:10:57.256Z,23.00
2018-10-16T10:13:25.957Z,22.83
2018-10-16T10:15:54.495Z,23.08
2018-10-16T10:18:23.025Z,23.47
2018-10-16T10:20:51.639Z,23.05
2018-10-16T10:23:20.169Z,22.77
2018-10-16T10:25:48.747Z,22.78
2018-10-16T10:28:17.357Z,22.72
2018-10-16T10:30:45.890Z,22.73
2018-10-16T10:33:14.467Z,22.78
2018-10-16T10:35:45.963Z,23.18
2018-10-16T10:38:14.502Z,22.78
2018-10-16T10:40:43.581Z,22.82
2018-10-16T10:43:12.119Z,22.80
2018-10-16T10:45:40.634Z,23.06
2018-10-16T10:48:09.566Z,23.05
2018-10-16T10:50:38.322Z,23.05
2018-10-16T10:53:06.602Z,22.80
2018-10-16T10:55:39.308Z,22.65
2018-10-16T10:58:07.992Z,22.48
2018-10-16T11:00:36.563Z,22.53
2018-10-16T11:03:05.594Z,22.55
2018-10-16T11:05:34.585Z,22.81
2018-10-16T11:08:05.853Z,22.93
2018-10-16T11:10:34.428Z,22.90
2018-10-16T11:13:05.741Z,22.76
2018-10-16T11:15:34.263Z,22.85
2018-10-16T11:18:04.569Z,22.91
2018-10-16T11:20:33.093Z,23.04
2018-10-16T11:23:02.762Z,23.58
2018-10-16T11:25:31.346Z,23.71
2018-10-16T11:27:59.854Z,23.62
2018-10-16T11:30:28.446Z,23.63
2018-10-16T11:32:56.990Z,23.77
2018-10-16T11:35:25.525Z,23.84
2018-10-16T11:37:54.018Z,23.74
2018-10-16T11:40:22.576Z,23.64
2018-10-16T11:42:51.125Z,23.85
2018-10-16T11:45:19.700Z,23.85
2018-10-16T11:47:48.185Z,23.72
2018-10-16T11:50:16.881Z,23.65
2018-10-16T11:52:45.447Z,23.70
2018-10-16T11:55:14.010Z,23.87
2018-10-16T11:57:42.627Z,24.13
2018-10-16T12:00:15.686Z,24.77
2018-10-16T12:02:44.455Z,25.42
2018-10-16T12:05:13.050Z,25.90
2018-10-16T12:07:42.063Z,25.78
2018-10-16T12:10:10.661Z,26.37
2018-10-16T12:12:39.225Z,28.11
2018-10-16T12:15:08.286Z,27.91
2018-10-16T12:17:41.834Z,29.04
2018-10-16T12:20:14.991Z,29.09
2018-10-16T12:22:43.504Z,28.90
2018-10-16T12:25:12.067Z,28.78
2018-10-16T12:27:40.631Z,28.67
2018-10-16T12:30:09.525Z,29.65
2018-10-16T12:32:38.420Z,28.44
2018-10-16T12:35:07.086Z,28.08
2018-10-16T12:37:35.730Z,28.69
2018-10-16T12:40:06.168Z,29.22
2018-10-16T12:42:34.725Z,29.21
2018-10-16T12:45:05.054Z,30.50
2018-10-16T12:47:33.705Z,31.14
2018-10-16T12:50:04.267Z,31.47
2018-10-16T12:52:32.850Z,30.69
2018-10-16T12:55:02.723Z,31.50
2018-10-16T12:57:31.361Z,30.65
2018-10-16T12:59:59.949Z,30.69
2018-10-16T13:02:28.499Z,31.00
2018-10-16T13:04:57.355Z,31.15
2018-10-16T13:07:41.197Z,31.80
2018-10-16T13:10:13.379Z,31.68
2018-10-16T13:12:42.523Z,30.58
2018-10-16T13:15:12.451Z,29.45
2018-10-16T13:17:41.776Z,28.10
2018-10-16T13:20:12.387Z,28.11
2018-10-16T13:22:41.406Z,28.80
2018-10-16T13:25:11.538Z,30.62
2018-10-16T13:27:40.078Z,30.02
2018-10-16T13:30:11.421Z,27.74
2018-10-16T13:32:40.077Z,30.38
2018-10-16T13:35:11.550Z,29.58
2018-10-16T13:37:39.989Z,30.98
2018-10-16T13:40:09.639Z,31.71
2018-10-16T13:42:38.187Z,31.15
2018-10-16T13:45:07.897Z,29.74
2018-10-16T13:47:36.418Z,30.62
2018-10-16T13:50:06.199Z,31.15
2018-10-16T13:52:34.722Z,31.41
2018-10-16T13:55:05.029Z,31.62
2018-10-16T13:57:33.568Z,28.98
2018-10-16T14:00:03.787Z,28.25
2018-10-16T14:02:32.346Z,29.94
2018-10-16T14:05:01.021Z,31.19
2018-10-16T14:07:29.490Z,29.27
2018-10-16T14:09:58.035Z,29.16
2018-10-16T14:12:26.583Z,30.13
2018-10-16T14:14:55.137Z,29.38
2018-10-16T14:17:23.697Z,28.03
2018-10-16T14:19:52.278Z,27.73
2018-10-16T14:22:20.833Z,27.65
2018-10-16T14:24:49.444Z,27.29
2018-10-16T14:27:18.008Z,27.55
2018-10-16T14:29:46.554Z,28.42
2018-10-16T14:32:15.241Z,28.73
2018-10-16T14:34:43.935Z,27.83
2018-10-16T14:37:12.458Z,28.75
2018-10-16T14:39:40.989Z,28.45
2018-10-16T14:42:09.770Z,28.71
2018-10-16T14:44:38.287Z,28.14
2018-10-16T14:47:06.848Z,28.14
2018-10-16T14:49:36.334Z,27.54
2018-10-16T14:52:05.565Z,27.37
2018-10-16T14:54:34.110Z,27.09
2018-10-16T14:57:04.091Z,26.47
2018-10-16T14:59:32.573Z,26.41
2018-10-16T15:02:03.612Z,25.93
2018-10-16T15:04:32.081Z,26.36
2018-10-16T15:07:00.597Z,26.36
2018-10-16T15:09:29.240Z,26.04
2018-10-16T15:11:57.830Z,25.45
2018-10-16T15:14:26.829Z,25.08
2018-10-16T15:16:55.347Z,25.50
2018-10-16T15:19:24.003Z,25.02
2018-10-16T15:21:52.547Z,25.04
2018-10-16T15:24:21.125Z,25.21
2018-10-16T15:26:49.775Z,25.47
2018-10-16T15:29:18.384Z,24.37
2018-10-16T15:31:46.919Z,23.87
2018-10-16T15:34:15.474Z,23.82
2018-10-16T15:36:44.145Z,24.09
2018-10-16T15:39:13.473Z,23.68
2018-10-16T15:41:41.985Z,23.53
2018-10-16T15:44:11.248Z,23.35
2018-10-16T15:46:40.096Z,23.53
2018-10-16T15:49:08.781Z,23.40
2018-10-16T15:51:37.324Z,23.18
2018-10-16T15:54:06.271Z,23.33
2018-10-16T15:56:34.805Z,23.13
2018-10-16T15:59:04.598Z,22.60
2018-10-16T16:01:33.098Z,22.59
2018-10-16T16:04:03.168Z,22.78
2018-10-16T16:06:31.651Z,22.61
2018-10-16T16:09:00.291Z,22.32
2018-10-16T16:11:28.864Z,22.26
2018-10-16T16:13:57.558Z,22.35
2018-10-16T16:16:26.435Z,22.26
2018-10-16T16:18:54.936Z,21.99
2018-10-16T16:21:23.890Z,21.70
2018-10-16T16:23:52.430Z,21.65
2018-10-16T16:26:20.985Z,21.55
2018-10-16T16:28:50.159Z,21.36
2018-10-16T16:31:18.856Z,21.14
2018-10-16T16:33:47.409Z,21.10
2018-10-16T16:36:15.952Z,20.90
2018-10-16T16:38:44.534Z,20.75
2018-10-16T16:41:13.102Z,20.56
2018-10-16T16:43:42.510Z,20.39
2018-10-16T16:46:11.087Z,20.32
2018-10-16T16:48:39.612Z,20.12
2018-10-16T16:51:08.163Z,19.98
2018-10-16T16:53:36.722Z,19.79
2018-10-16T16:56:06.055Z,19.61
2018-10-16T16:58:35.117Z,19.51
2018-10-16T17:01:05.994Z,19.35
2018-10-16T17:03:34.864Z,19.28
2018-10-16T17:06:04.639Z,19.25
2018-10-16T17:08:33.166Z,19.03
2018-10-16T17:11:04.727Z,18.86
2018-10-16T17:13:33.248Z,18.85
2018-10-16T17:16:02.725Z,18.66
2018-10-16T17:18:31.337Z,18.47
2018-10-16T17:20:59.797Z,18.32
2018-10-16T17:23:28.397Z,18.24
2018-10-16T17:25:57.251Z,18.13
2018-10-16T17:28:25.494Z,17.98
2018-10-16T17:30:54.088Z,17.86
2018-10-16T17:33:22.651Z,17.79
2018-10-16T17:35:51.165Z,17.68
2018-10-16T17:38:19.685Z,17.55
2018-10-16T17:40:48.288Z,17.47
2018-10-16T17:43:16.795Z,17.45
2018-10-16T17:45:45.579Z,17.52
2018-10-16T17:48:14.164Z,17.55
2018-10-16T17:50:43.169Z,17.24
2018-10-16T17:53:11.705Z,17.14
2018-10-16T17:55:40.186Z,17.03
2018-10-16T17:58:08.740Z,16.95
2018-10-16T18:00:39.423Z,16.85
2018-10-16T18:03:07.994Z,16.78
2018-10-16T18:05:36.553Z,16.70
2018-10-16T18:08:05.233Z,16.63
2018-10-16T18:10:33.818Z,16.54
2018-10-16T18:13:05.000Z,16.58
2018-10-16T18:15:35.216Z,16.51
2018-10-16T18:18:04.648Z,16.36
2018-10-16T18:20:33.231Z,16.32
2018-10-16T18:23:03.150Z,16.20
2018-10-16T18:25:31.724Z,16.13
2018-10-16T18:28:00.290Z,16.05
2018-10-16T18:30:28.826Z,16.04
2018-10-16T18:32:57.428Z,15.99
2018-10-16T18:35:26.047Z,15.93
2018-10-16T18:37:55.179Z,15.88
2018-10-16T18:40:23.886Z,15.85
2018-10-16T18:42:53.293Z,15.83
2018-10-16T18:45:21.855Z,15.77
2018-10-16T18:47:52.140Z,15.69
2018-10-16T18:50:20.654Z,15.65
2018-10-16T18:52:49.232Z,15.63
2018-10-16T18:55:17.808Z,15.60
2018-10-16T18:57:46.498Z,15.64
2018-10-16T19:00:18.171Z,15.60
2018-10-16T19:02:47.465Z,15.58
2018-10-16T19:05:16.138Z,15.59
2018-10-16T19:07:44.779Z,15.61
2018-10-16T19:10:13.470Z,15.73
2018-10-16T19:12:42.366Z,15.63
2018-10-16T19:15:12.597Z,15.62
2018-10-16T19:17:41.828Z,15.57
2018-10-16T19:20:11.887Z,15.59
2018-10-16T19:22:40.567Z,15.56
2018-10-16T19:25:10.133Z,15.56
2018-10-16T19:27:38.880Z,15.54
2018-10-16T19:30:08.686Z,15.50
2018-10-16T19:32:37.325Z,15.48
2018-10-16T19:35:06.207Z,15.41
2018-10-16T19:37:34.891Z,15.38
2018-10-16T19:40:04.912Z,15.38
2018-10-16T19:42:33.494Z,15.40
2018-10-16T19:45:03.953Z,15.39
2018-10-16T19:47:32.616Z,15.33
2018-10-16T19:50:02.724Z,15.31
2018-10-16T19:52:31.284Z,15.29
2018-10-16T19:54:59.874Z,15.25
2018-10-16T19:57:28.481Z,15.27
2018-10-16T19:59:57.083Z,15.29
2018-10-16T20:02:25.632Z,15.25
2018-10-16T20:04:54.230Z,15.19
2018-10-16T20:07:22.895Z,15.17
2018-10-16T20:09:51.425Z,15.16
2018-10-16T20:12:19.988Z,15.15
2018-10-16T20:14:48.553Z,15.14
2018-10-16T20:17:17.114Z,15.10
2018-10-16T20:19:45.698Z,15.11
2018-10-16T20:22:14.218Z,15.06
2018-10-16T20:24:42.835Z,15.05
2018-10-16T20:27:11.310Z,15.01
2018-10-16T20:29:39.834Z,15.02
2018-10-16T20:32:08.069Z,14.99
2018-10-16T20:34:36.664Z,14.93
2018-10-16T20:37:05.288Z,14.90
2018-10-16T20:39:33.796Z,14.87
2018-10-16T20:42:04.487Z,14.88
2018-10-16T20:44:33.042Z,14.85
2018-10-16T20:47:02.897Z,14.78
2018-10-16T20:49:31.456Z,14.68
2018-10-16T20:52:01.128Z,14.68
2018-10-16T20:54:29.635Z,14.62
2018-10-16T20:56:58.154Z,14.58
2018-10-16T20:59:26.790Z,14.54
2018-10-16T21:01:55.428Z,14.50
2018-10-16T21:04:23.960Z,14.48
2018-10-16T21:06:52.639Z,14.52
2018-10-16T21:09:21.152Z,14.50
2018-10-16T21:11:49.692Z,14.43
2018-10-16T21:14:18.196Z,14.38
2018-10-16T21:16:46.775Z,14.36
2018-10-16T21:19:15.364Z,14.29
2018-10-16T21:21:43.836Z,14.26
2018-10-16T21:24:12.416Z,14.21
2018-10-16T21:26:41.036Z,14.17
2018-10-16T21:29:09.621Z,14.15
2018-10-16T21:31:38.107Z,14.13
2018-10-16T21:34:06.704Z,14.06
2018-10-16T21:36:35.203Z,14.02
2018-10-16T21:39:06.637Z,14.01
2018-10-16T21:41:35.499Z,13.94
2018-10-16T21:44:09.264Z,13.92
2018-10-16T21:46:37.820Z,13.88
2018-10-16T21:49:06.827Z,13.96
2018-10-16T21:51:35.299Z,13.95
2018-10-16T21:54:06.077Z,13.86
2018-10-16T21:56:34.606Z,13.87
2018-10-16T21:59:04.945Z,13.86
2018-10-16T22:01:38.542Z,13.89
2018-10-16T22:04:07.123Z,13.84
2018-10-16T22:06:35.630Z,13.80
2018-10-16T22:09:09.949Z,13.76
2018-10-16T22:11:38.478Z,13.69
2018-10-16T22:14:07.517Z,13.60
2018-10-16T22:16:36.087Z,13.58
2018-10-16T22:19:06.044Z,13.52
2018-10-16T22:21:34.601Z,13.46
2018-10-16T22:24:04.485Z,13.46
2018-10-16T22:26:33.289Z,13.44
2018-10-16T22:29:03.286Z,13.42
2018-10-16T22:31:31.769Z,13.37
2018-10-16T22:34:00.294Z,13.32
2018-10-16T22:36:28.848Z,13.29
2018-10-16T22:38:57.353Z,13.29
2018-10-16T22:41:26.132Z,13.26
2018-10-16T22:43:54.808Z,13.23
2018-10-16T22:46:23.328Z,13.22
2018-10-16T22:48:51.941Z,13.21
2018-10-16T22:51:20.477Z,13.18
2018-10-16T22:53:48.947Z,13.17
2018-10-16T22:56:17.491Z,13.15
2018-10-16T22:58:46.157Z,13.15
2018-10-16T23:01:14.712Z,13.16
2018-10-16T23:03:43.278Z,13.19
2018-10-16T23:06:11.880Z,13.16
2018-10-16T23:08:40.466Z,13.16
2018-10-16T23:11:09.456Z,13.14
2018-10-16T23:13:37.973Z,13.08
2018-10-16T23:16:06.491Z,13.06
2018-10-16T23:18:35.272Z,13.05
2018-10-16T23:21:05.429Z,13.09
2018-10-16T23:23:33.918Z,13.12
2018-10-16T23:26:04.661Z,13.17
2018-10-16T23:28:33.198Z,13.18
2018-10-16T23:31:02.807Z,13.21
2018-10-16T23:33:31.378Z,13.24
2018-10-16T23:35:59.937Z,13.24
2018-10-16T23:38:28.474Z,13.27
2018-10-16T23:40:56.975Z,13.27
2018-10-16T23:43:25.503Z,13.26
2018-10-16T23:45:54.063Z,13.27
2018-10-16T23:48:22.587Z,13.29
2018-10-16T23:50:51.189Z,13.31
2018-10-16T23:53:19.716Z,13.36
2018-10-16T23:55:48.232Z,13.37
2018-10-16T23:58:16.836Z,13.39
